Time;durP1;ratioP1;P1;durP2;ratioP2;P2;SDS_P1;SDS_P2;PMS_P1;PMS_P2;Temp;Humidity;BMP_temperature;BMP_pressure;BME280_temperature;BME280_humidity;BME280_pressure;Samples;Min_cycle;Max_cycle;Signal;HPM_P1;HPM_P2
2023/06/25 00:00:48;;;;;;;13.43;7.63;;;20.60;99.90;;;;;;5033961;28;20385;-80
2023/06/25 00:03:14;;;;;;;10.13;7.47;;;20.50;99.90;;;;;;5034307;28;20045;-80
2023/06/25 00:05:40;;;;;;;11.63;7.57;;;20.50;99.90;;;;;;5034989;28;20068;-79
2023/06/25 00:08:06;;;;;;;9.97;7.73;;;20.40;99.90;;;;;;5033838;28;20061;-80
2023/06/25 00:10:31;;;;;;;12.00;8.23;;;20.40;99.90;;;;;;5017326;28;20084;-80
2023/06/25 00:12:57;;;;;;;11.77;8.10;;;20.40;99.90;;;;;;5033689;28;20125;-80
2023/06/25 00:15:23;;;;;;;13.13;8.27;;;20.40;99.90;;;;;;5033650;28;20493;-80
2023/06/25 00:17:49;;;;;;;10.97;7.73;;;20.40;99.90;;;;;;5017249;28;20143;-81
2023/06/25 00:20:18;;;;;;;11.27;9.50;;;20.40;99.90;;;;;;5017655;28;20120;-80
2023/06/25 00:22:44;;;;;;;11.30;8.97;;;20.40;99.90;;;;;;5017541;28;20050;-80
2023/06/25 00:25:13;;;;;;;10.43;7.77;;;20.50;99.90;;;;;;5034799;28;20132;-81
2023/06/25 00:27:40;;;;;;;11.97;8.67;;;20.40;99.90;;;;;;5034753;28;20111;-81
2023/06/25 00:30:07;;;;;;;12.30;8.60;;;20.40;99.90;;;;;;5033444;28;20053;-81
2023/06/25 00:32:33;;;;;;;13.83;11.13;;;20.40;99.90;;;;;;5017318;28;20052;-81
2023/06/25 00:35:01;;;;;;;16.83;10.80;;;20.40;99.90;;;;;;5033410;28;20050;-81
2023/06/25 00:37:27;;;;;;;11.87;8.70;;;20.40;99.90;;;;;;5017502;28;20057;-81
2023/06/25 00:39:53;;;;;;;10.83;8.87;;;20.40;99.90;;;;;;5033137;28;20045;-81
2023/06/25 00:42:19;;;;;;;11.23;8.80;;;20.30;99.90;;;;;;5034708;28;20064;-81
2023/06/25 00:44:45;;;;;;;11.77;9.40;;;20.30;99.90;;;;;;5034781;28;20389;-81
2023/06/25 00:47:13;;;;;;;12.40;9.27;;;20.30;99.90;;;;;;5033220;28;20052;-81
2023/06/25 00:49:40;;;;;;;13.47;9.30;;;20.30;99.90;;;;;;5034552;28;20041;-81
2023/06/25 00:52:08;;;;;;;11.73;9.03;;;20.30;99.90;;;;;;5033957;28;20057;-81
2023/06/25 00:54:43;;;;;;;13.00;9.43;;;20.30;99.90;;;;;;5033038;28;20045;-81
2023/06/25 00:57:10;;;;;;;12.38;10.68;;;20.20;99.90;;;;;;5032644;28;20406;-81
2023/06/25 00:59:39;;;;;;;14.70;11.43;;;20.20;99.90;;;;;;5031123;28;20041;-81
2023/06/25 01:02:20;;;;;;;13.17;9.50;;;20.20;99.90;;;;;;5032937;28;20068;-81
2023/06/25 01:04:57;;;;;;;12.70;9.73;;;20.10;99.90;;;;;;5033945;28;20053;-81
2023/06/25 01:07:25;;;;;;;11.20;10.00;;;20.10;99.90;;;;;;5034312;28;20062;-81
2023/06/25 01:09:50;;;;;;;13.87;11.03;;;20.10;99.90;;;;;;5033664;28;20044;-82
2023/06/25 01:12:16;;;;;;;16.60;10.50;;;20.10;99.90;;;;;;5032924;28;20045;-83
2023/06/25 01:14:42;;;;;;;15.67;12.57;;;20.10;99.90;;;;;;5049421;28;20068;-81
2023/06/25 01:17:09;;;;;;;15.27;11.20;;;20.10;99.90;;;;;;5032818;28;20049;-81
2023/06/25 01:19:35;;;;;;;14.03;11.43;;;20.10;99.90;;;;;;5049359;28;20041;-81
2023/06/25 01:22:03;;;;;;;12.00;9.60;;;20.10;99.90;;;;;;5032748;28;20060;-81
2023/06/25 01:24:29;;;;;;;11.57;9.70;;;20.00;99.90;;;;;;5032882;28;20053;-81
2023/06/25 01:26:59;;;;;;;15.77;12.27;;;20.00;99.90;;;;;;5032406;28;20092;-81
2023/06/25 01:29:26;;;;;;;13.37;10.90;;;20.00;99.90;;;;;;5016436;28;20049;-81
2023/06/25 01:31:52;;;;;;;11.93;9.80;;;20.00;99.90;;;;;;5016041;28;20377;-80
2023/06/25 01:34:20;;;;;;;12.97;10.60;;;19.90;99.90;;;;;;5032401;28;20054;-81
2023/06/25 01:36:50;;;;;;;12.27;9.90;;;19.90;99.90;;;;;;5016077;28;20492;-81
2023/06/25 01:39:17;;;;;;;12.00;10.23;;;19.80;99.90;;;;;;5032178;28;20041;-80
2023/06/25 01:41:43;;;;;;;11.63;9.90;;;19.80;99.90;;;;;;5033394;28;20049;-80
2023/06/25 01:44:19;;;;;;;12.77;9.67;;;19.80;99.90;;;;;;5032040;28;20516;-81
2023/06/25 01:46:45;;;;;;;12.80;10.43;;;19.80;99.90;;;;;;5032409;28;20060;-80
2023/06/25 01:49:10;;;;;;;14.37;9.73;;;19.70;99.90;;;;;;5032148;28;20053;-81
2023/06/25 01:51:37;;;;;;;10.80;8.93;;;19.70;99.90;;;;;;5032291;28;20042;-81
2023/06/25 01:54:03;;;;;;;11.70;9.43;;;19.70;99.90;;;;;;5031962;28;20378;-81
2023/06/25 01:56:29;;;;;;;11.33;9.43;;;19.60;99.90;;;;;;5031746;28;20049;-81
2023/06/25 01:58:54;;;;;;;12.53;9.10;;;19.60;99.90;;;;;;5048386;28;20050;-81
2023/06/25 02:01:21;;;;;;;12.50;9.97;;;19.60;99.90;;;;;;5031591;28;20068;-81
2023/06/25 02:03:46;;;;;;;11.67;10.00;;;19.60;99.90;;;;;;5015938;28;20049;-81
2023/06/25 02:06:12;;;;;;;14.03;10.10;;;19.50;99.90;;;;;;5047747;28;20579;-81
2023/06/25 02:08:38;;;;;;;13.77;11.00;;;19.50;99.90;;;;;;5031391;28;20480;-81
2023/06/25 02:11:06;;;;;;;12.27;10.33;;;19.50;99.90;;;;;;5032607;28;20107;-81
2023/06/25 02:13:33;;;;;;;13.23;10.43;;;19.40;99.90;;;;;;5031468;28;20042;-81
2023/06/25 02:15:59;;;;;;;12.67;10.23;;;19.30;99.90;;;;;;5032681;28;20049;-81
2023/06/25 02:18:25;;;;;;;12.67;11.13;;;19.30;99.90;;;;;;5032914;28;20049;-81
2023/06/25 02:20:51;;;;;;;13.83;9.47;;;19.30;99.90;;;;;;5015196;28;20500;-80
2023/06/25 02:23:16;;;;;;;12.60;10.67;;;19.30;99.90;;;;;;5031570;28;20092;-81
2023/06/25 02:25:42;;;;;;;12.77;10.87;;;19.30;99.90;;;;;;5015503;28;20132;-81
2023/06/25 02:28:08;;;;;;;14.23;11.63;;;19.30;99.90;;;;;;5031197;28;20148;-81
2023/06/25 02:30:33;;;;;;;15.67;11.03;;;19.20;99.90;;;;;;5015339;28;20116;-82
2023/06/25 02:32:59;;;;;;;15.33;11.63;;;19.20;99.90;;;;;;5015296;28;20081;-82
2023/06/25 02:35:25;;;;;;;14.03;10.77;;;19.20;99.90;;;;;;5032497;28;20354;-81
2023/06/25 02:37:50;;;;;;;11.93;10.67;;;19.20;99.90;;;;;;5032627;28;20046;-81
2023/06/25 02:40:16;;;;;;;12.63;10.73;;;19.10;99.90;;;;;;5031059;28;20041;-81
2023/06/25 02:42:42;;;;;;;15.37;11.37;;;19.10;99.90;;;;;;5047852;28;20091;-81
2023/06/25 02:45:08;;;;;;;13.87;11.13;;;19.00;99.90;;;;;;5031161;28;20473;-81
2023/06/25 02:47:34;;;;;;;14.43;11.93;;;19.00;99.90;;;;;;5031799;28;20393;-81
2023/06/25 02:49:59;;;;;;;13.33;10.83;;;19.00;99.90;;;;;;5015103;28;20041;-81
2023/06/25 02:52:25;;;;;;;12.47;10.67;;;19.00;99.90;;;;;;5031149;28;20061;-81
2023/06/25 02:54:51;;;;;;;15.17;11.20;;;19.00;99.90;;;;;;5031527;28;20482;-81
2023/06/25 02:57:17;;;;;;;15.43;11.57;;;19.00;99.90;;;;;;5047513;28;20063;-82
2023/06/25 02:59:42;;;;;;;14.53;11.67;;;19.00;99.90;;;;;;5031423;28;20046;-81
2023/06/25 03:02:08;;;;;;;14.57;11.60;;;19.00;99.90;;;;;;4998484;28;20480;-82
2023/06/25 03:04:34;;;;;;;13.97;11.27;;;19.00;99.90;;;;;;5031214;28;20103;-81
2023/06/25 03:06:59;;;;;;;13.80;11.13;;;19.00;99.90;;;;;;5047640;28;20057;-81
2023/06/25 03:09:25;;;;;;;12.33;10.80;;;19.00;99.90;;;;;;5014715;28;20057;-81
2023/06/25 03:11:51;;;;;;;13.13;10.70;;;19.00;99.90;;;;;;5047810;28;20089;-81
2023/06/25 03:14:16;;;;;;;15.23;10.50;;;19.00;99.90;;;;;;5030833;28;20045;-81
2023/06/25 03:16:42;;;;;;;12.50;10.73;;;19.00;99.90;;;;;;5031240;28;20050;-81
2023/06/25 03:19:08;;;;;;;11.60;9.87;;;19.00;99.90;;;;;;5031508;28;20474;-81
2023/06/25 03:21:33;;;;;;;13.27;11.03;;;19.00;99.90;;;;;;5035954;28;20056;-81
2023/06/25 03:23:59;;;;;;;13.60;11.20;;;19.00;99.90;;;;;;5034670;28;20053;-81
2023/06/25 03:26:25;;;;;;;14.47;10.90;;;19.00;99.90;;;;;;5018127;28;20050;-81
2023/06/25 03:28:53;;;;;;;12.10;10.50;;;19.00;99.90;;;;;;5034543;28;20124;-82
2023/06/25 03:31:19;;;;;;;12.70;10.47;;;19.00;99.90;;;;;;5034668;28;20053;-82
2023/06/25 03:33:45;;;;;;;13.40;10.77;;;19.00;99.90;;;;;;5034902;28;20516;-81
2023/06/25 03:36:10;;;;;;;12.20;10.60;;;19.00;99.90;;;;;;5034606;28;20046;-82
2023/06/25 03:38:36;;;;;;;15.17;10.77;;;19.00;99.90;;;;;;5018193;28;20546;-81
2023/06/25 03:41:02;;;;;;;15.20;10.50;;;19.00;99.90;;;;;;5034397;28;20052;-81
2023/06/25 03:43:27;;;;;;;13.10;10.43;;;19.00;99.90;;;;;;5034144;28;20115;-81
2023/06/25 03:45:53;;;;;;;13.63;11.17;;;18.90;99.90;;;;;;5034853;28;20072;-81
2023/06/25 03:48:19;;;;;;;12.23;10.47;;;18.90;99.90;;;;;;5034327;28;20076;-81
2023/06/25 03:50:45;;;;;;;11.47;9.97;;;18.90;99.90;;;;;;5034875;28;20050;-81
2023/06/25 03:53:10;;;;;;;11.63;10.00;;;18.90;99.90;;;;;;5034105;28;20448;-81
2023/06/25 03:55:36;;;;;;;13.10;10.80;;;18.90;99.90;;;;;;5035305;28;20409;-82
2023/06/25 03:58:02;;;;;;;15.30;10.93;;;18.90;99.90;;;;;;5034239;28;20058;-82
2023/06/25 04:00:27;;;;;;;12.13;10.43;;;18.90;99.90;;;;;;5033950;28;20041;-81
2023/06/25 04:02:53;;;;;;;15.23;10.73;;;18.90;99.90;;;;;;5035443;28;20054;-81
2023/06/25 04:05:19;;;;;;;12.17;10.80;;;19.00;99.90;;;;;;5050364;28;20400;-82
2023/06/25 04:07:45;;;;;;;13.10;10.40;;;19.00;99.90;;;;;;5035164;28;20064;-81
2023/06/25 04:10:10;;;;;;;15.63;11.27;;;19.00;99.90;;;;;;5035172;28;20052;-81
2023/06/25 04:12:36;;;;;;;13.73;10.87;;;18.90;99.90;;;;;;5034035;28;20041;-80
2023/06/25 04:15:02;;;;;;;13.47;10.37;;;18.90;99.90;;;;;;5035240;28;20462;-80
2023/06/25 04:17:28;;;;;;;14.37;11.50;;;18.90;99.90;;;;;;5033867;28;20165;-80
2023/06/25 04:19:53;;;;;;;14.97;11.00;;;19.00;99.90;;;;;;5034895;28;20120;-80
2023/06/25 04:22:19;;;;;;;14.13;11.30;;;19.00;99.90;;;;;;5033439;28;20551;-81
2023/06/25 04:24:45;;;;;;;14.60;11.67;;;19.00;99.90;;;;;;5050426;28;20441;-80
2023/06/25 04:27:10;;;;;;;14.23;11.40;;;19.00;99.90;;;;;;5033541;28;20049;-80
2023/06/25 04:29:36;;;;;;;14.07;11.40;;;19.00;99.90;;;;;;5017161;28;20110;-81
2023/06/25 04:32:03;;;;;;;13.03;11.07;;;19.10;99.90;;;;;;5033116;28;20513;-81
2023/06/25 04:34:28;;;;;;;14.93;11.10;;;19.10;99.90;;;;;;5033454;28;20563;-81
2023/06/25 04:36:54;;;;;;;12.17;10.97;;;19.20;99.90;;;;;;5033276;28;20057;-81
2023/06/25 04:39:20;;;;;;;14.20;11.30;;;19.20;99.90;;;;;;5016765;28;20053;-81
2023/06/25 04:41:45;;;;;;;15.20;11.80;;;19.30;99.90;;;;;;5016886;28;20042;-81
2023/06/25 04:44:11;;;;;;;13.37;10.57;;;19.30;99.90;;;;;;5049959;28;20048;-81
2023/06/25 04:46:37;;;;;;;15.47;11.17;;;19.40;99.90;;;;;;5034145;28;20467;-80
2023/06/25 04:49:02;;;;;;;14.60;11.47;;;19.50;99.90;;;;;;5049741;28;20051;-82
2023/06/25 04:51:28;;;;;;;14.53;11.03;;;19.50;99.90;;;;;;5032883;28;20084;-82
2023/06/25 04:53:54;;;;;;;12.83;11.10;;;19.60;99.90;;;;;;5033284;28;20037;-81
2023/06/25 04:56:20;;;;;;;15.13;10.70;;;19.70;99.90;;;;;;5033018;28;20088;-82
2023/06/25 04:58:45;;;;;;;12.23;10.40;;;19.80;99.90;;;;;;5033374;28;20053;-82
2023/06/25 05:01:11;;;;;;;14.13;10.73;;;19.90;99.90;;;;;;5032982;28;20555;-82
2023/06/25 05:03:37;;;;;;;14.30;10.87;;;20.00;99.90;;;;;;5049432;28;20045;-81
2023/06/25 05:06:03;;;;;;;13.17;10.50;;;20.10;99.90;;;;;;5034224;28;20053;-82
2023/06/25 05:08:28;;;;;;;11.63;9.83;;;20.20;99.90;;;;;;5032811;28;20058;-81
2023/06/25 05:10:54;;;;;;;12.97;10.47;;;20.30;99.90;;;;;;5032661;28;20049;-81
2023/06/25 05:13:20;;;;;;;13.43;10.83;;;20.40;99.90;;;;;;5032864;28;20084;-80
2023/06/25 05:15:46;;;;;;;12.33;10.63;;;20.50;99.90;;;;;;5032973;28;20134;-81
2023/06/25 05:18:12;;;;;;;12.70;9.60;;;20.50;99.90;;;;;;5032864;28;20045;-81
2023/06/25 05:20:38;;;;;;;13.27;9.93;;;20.60;99.90;;;;;;5032276;28;20255;-81
2023/06/25 05:23:05;;;;;;;13.93;9.93;;;20.80;99.90;;;;;;5032813;28;20052;-82
2023/06/25 05:25:32;;;;;;;16.43;10.23;;;20.90;99.90;;;;;;5032264;28;20195;-81
2023/06/25 05:27:58;;;;;;;13.10;10.40;;;21.00;99.90;;;;;;5032764;28;20053;-81
2023/06/25 05:30:25;;;;;;;11.30;9.73;;;21.00;99.90;;;;;;5033504;28;20042;-81
2023/06/25 05:32:50;;;;;;;13.73;8.73;;;21.10;99.90;;;;;;5032654;28;20049;-81
2023/06/25 05:35:16;;;;;;;13.37;9.27;;;21.30;99.90;;;;;;5049029;28;20077;-81
2023/06/25 05:37:42;;;;;;;12.73;9.57;;;21.40;99.90;;;;;;5031630;28;20049;-81
2023/06/25 05:40:08;;;;;;;11.43;9.17;;;21.60;99.90;;;;;;5015726;28;20052;-80
2023/06/25 05:42:34;;;;;;;9.83;8.73;;;21.70;99.90;;;;;;5031418;28;20386;-81
2023/06/25 05:44:59;;;;;;;9.73;7.67;;;21.90;99.90;;;;;;5032249;28;20103;-80
2023/06/25 05:47:25;;;;;;;10.90;8.40;;;22.10;99.90;;;;;;5048556;28;20048;-81
2023/06/25 05:49:51;;;;;;;10.70;8.33;;;22.30;99.90;;;;;;5048863;28;20084;-79
2023/06/25 05:52:16;;;;;;;10.53;8.70;;;22.70;99.90;;;;;;5032221;28;20042;-80
2023/06/25 05:54:42;;;;;;;10.33;7.67;;;23.80;99.90;;;;;;5032845;28;20117;-79
2023/06/25 05:57:08;;;;;;;11.17;7.80;;;24.90;99.90;;;;;;5032964;28;20183;-80
2023/06/25 05:59:33;;;;;;;10.13;6.70;;;26.00;99.90;;;;;;5031996;28;20110;-81
2023/06/25 06:01:59;;;;;;;9.67;7.73;;;27.00;99.90;;;;;;5015563;28;20049;-80
2023/06/25 06:04:25;;;;;;;9.73;7.57;;;27.50;98.30;;;;;;5031774;28;20049;-81
2023/06/25 06:06:51;;;;;;;8.63;6.57;;;28.00;94.80;;;;;;5048055;28;20144;-80
2023/06/25 06:09:16;;;;;;;8.83;6.97;;;28.50;92.60;;;;;;5015469;28;20041;-80
2023/06/25 06:11:42;;;;;;;8.93;6.57;;;29.10;87.80;;;;;;5031705;28;20064;-81
2023/06/25 06:14:08;;;;;;;11.03;6.83;;;29.50;78.30;;;;;;5032943;28;20136;-81
2023/06/25 06:16:33;;;;;;;9.43;6.40;;;29.90;73.70;;;;;;5031655;28;20041;-81
2023/06/25 06:18:59;;;;;;;7.73;6.17;;;30.10;67.60;;;;;;5033002;28;20045;-81
2023/06/25 06:21:25;;;;;;;10.73;6.70;;;30.70;64.20;;;;;;5031480;28;20465;-80
2023/06/25 06:23:51;;;;;;;6.60;5.90;;;31.00;62.60;;;;;;5032360;28;20052;-80
2023/06/25 06:26:16;;;;;;;7.57;6.60;;;31.30;59.70;;;;;;5032867;28;20057;-81
2023/06/25 06:28:42;;;;;;;8.60;6.50;;;31.80;57.60;;;;;;5031615;28;20052;-81
2023/06/25 06:31:08;;;;;;;8.50;6.30;;;32.40;56.50;;;;;;5031926;28;20059;-80
2023/06/25 06:33:34;;;;;;;7.85;5.70;;;32.60;54.80;;;;;;5031466;28;20053;-81
2023/06/25 06:35:59;;;;;;;8.77;6.88;;;33.10;53.90;;;;;;5032865;28;20057;-81
2023/06/25 06:38:25;;;;;;;7.95;7.15;;;33.40;52.30;;;;;;5032524;28;20045;-81
2023/06/25 06:40:51;;;;;;;8.25;7.45;;;33.60;51.40;;;;;;5032360;28;20481;-81
2023/06/25 06:43:16;;;;;;;12.55;7.80;;;33.60;50.50;;;;;;5047973;28;20064;-81
2023/06/25 06:45:42;;;;;;;9.05;7.78;;;33.90;50.10;;;;;;5030942;28;20103;-81
2023/06/25 06:48:09;;;;;;;9.00;7.57;;;34.00;49.40;;;;;;5031493;28;20084;-81
2023/06/25 06:50:34;;;;;;;12.18;8.57;;;34.10;48.90;;;;;;5031259;28;20041;-81
2023/06/25 06:53:00;;;;;;;9.60;7.60;;;34.30;48.40;;;;;;5032276;28;20119;-81
2023/06/25 06:55:26;;;;;;;8.80;7.90;;;34.40;48.00;;;;;;5034058;28;20045;-81
2023/06/25 06:57:51;;;;;;;9.15;8.25;;;34.90;47.70;;;;;;5018849;28;20091;-81
2023/06/25 07:00:18;;;;;;;11.43;8.15;;;34.90;46.90;;;;;;5035486;28;20044;-81
2023/06/25 07:02:45;;;;;;;8.00;7.20;;;35.40;46.70;;;;;;5018576;28;20068;-81
2023/06/25 07:05:11;;;;;;;9.27;8.32;;;35.60;46.10;;;;;;5036032;28;20103;-84
2023/06/25 07:07:37;;;;;;;8.98;8.07;;;35.60;45.40;;;;;;5018488;28;20057;-84
2023/06/25 07:10:03;;;;;;;11.70;8.35;;;35.60;45.30;;;;;;5020413;28;20053;-85
2023/06/25 07:12:29;;;;;;;8.95;7.40;;;35.60;45.20;;;;;;5018747;28;20136;-86
2023/06/25 07:14:55;;;;;;;10.23;8.23;;;35.80;45.50;;;;;;5036073;28;20060;-86
2023/06/25 07:17:20;;;;;;;9.82;7.82;;;36.00;45.00;;;;;;5036228;28;20045;-87
2023/06/25 07:19:46;;;;;;;9.43;7.90;;;36.10;44.90;;;;;;5034561;28;20478;-86
2023/06/25 07:22:13;;;;;;;9.73;8.70;;;36.20;44.90;;;;;;5035925;28;20136;-86
2023/06/25 07:24:39;;;;;;;8.52;7.68;;;36.20;43.90;;;;;;5034979;28;20060;-87
2023/06/25 07:27:05;;;;;;;9.52;7.25;;;36.50;44.10;;;;;;5036174;28;20045;-87
2023/06/25 07:29:30;;;;;;;7.38;6.68;;;36.80;43.80;;;;;;5002225;28;20188;-86
2023/06/25 07:31:56;;;;;;;9.93;7.68;;;37.00;43.60;;;;;;5018165;28;20128;-85
2023/06/25 07:34:22;;;;;;;8.65;7.75;;;37.00;43.10;;;;;;5034649;28;20049;-85
2023/06/25 07:36:48;;;;;;;8.48;7.57;;;37.10;42.90;;;;;;5018145;28;20525;-84
2023/06/25 07:39:28;;;;;;;9.35;7.18;;;37.60;42.90;;;;;;5034755;28;20180;-85
2023/06/25 07:41:55;;;;;;;9.68;7.15;;;37.60;41.40;;;;;;5034506;28;20042;-87
2023/06/25 07:44:21;;;;;;;8.43;7.30;;;38.10;42.20;;;;;;5034887;28;20064;-86
2023/06/25 07:46:48;;;;;;;8.48;7.55;;;38.30;41.60;;;;;;5034173;28;20142;-85
2023/06/25 07:49:14;;;;;;;9.05;7.88;;;38.60;41.50;;;;;;5034505;28;20050;-81
2023/06/25 07:51:47;;;;;;;8.52;7.38;;;38.50;41.10;;;;;;5034105;28;20053;-81
2023/06/25 07:54:13;;;;;;;7.93;7.13;;;38.50;41.10;;;;;;5018975;28;20049;-83
2023/06/25 07:56:44;;;;;;;7.95;6.55;;;38.50;41.10;;;;;;5035067;28;20400;-82
2023/06/25 07:59:12;;;;;;;8.48;7.50;;;38.50;40.60;;;;;;5035685;28;20137;-82
2023/06/25 08:01:38;;;;;;;7.15;6.45;;;38.70;40.20;;;;;;5034834;28;20085;-84
2023/06/25 08:04:03;;;;;;;7.47;6.68;;;38.90;40.00;;;;;;5035063;28;20154;-84
2023/06/25 08:06:29;;;;;;;8.50;6.63;;;38.80;39.70;;;;;;5034141;28;20057;-84
2023/06/25 08:08:55;;;;;;;7.72;6.82;;;38.90;39.80;;;;;;5033751;28;20080;-83
2023/06/25 08:11:21;;;;;;;10.32;6.88;;;38.90;39.50;;;;;;5034108;28;20500;-81
2023/06/25 08:13:46;;;;;;;7.35;6.65;;;38.80;39.70;;;;;;5033522;28;20393;-80
2023/06/25 08:16:12;;;;;;;8.52;7.03;;;39.10;39.70;;;;;;5001114;28;20389;-82
2023/06/25 08:18:38;;;;;;;9.60;6.82;;;39.20;39.60;;;;;;5033851;28;20053;-85
2023/06/25 08:21:04;;;;;;;8.13;5.70;;;39.40;39.40;;;;;;5017202;28;20487;-79
2023/06/25 08:23:29;;;;;;;8.75;7.03;;;39.60;39.20;;;;;;5017191;28;20103;-78
2023/06/25 08:26:06;;;;;;;7.32;6.38;;;40.00;38.80;;;;;;5034669;28;20051;-86
2023/06/25 08:28:32;;;;;;;7.38;6.68;;;40.10;38.50;;;;;;5035027;28;20045;-74
2023/06/25 08:30:58;;;;;;;9.32;6.80;;;39.70;38.30;;;;;;5033167;28;20053;-83
2023/06/25 08:33:26;;;;;;;8.48;6.40;;;39.40;38.40;;;;;;5017760;28;20081;-85
2023/06/25 08:35:52;;;;;;;7.32;6.00;;;39.20;38.60;;;;;;5033519;28;20081;-81
2023/06/25 08:38:20;;;;;;;7.60;6.60;;;39.30;38.60;;;;;;5017273;28;20496;-74
2023/06/25 08:40:48;;;;;;;6.30;5.70;;;39.10;38.60;;;;;;5034316;28;20088;-74
2023/06/25 08:43:14;;;;;;;7.10;5.90;;;39.10;38.50;;;;;;5034483;28;20057;-76
2023/06/25 08:45:40;;;;;;;5.78;5.18;;;39.10;38.50;;;;;;5034286;28;20052;-75
2023/06/25 08:48:13;;;;;;;6.90;5.65;;;39.30;38.60;;;;;;5016596;28;20512;-74
2023/06/25 08:50:42;;;;;;;6.37;5.07;;;38.90;37.40;;;;;;5032858;28;20057;-73
2023/06/25 08:53:08;;;;;;;5.65;4.60;;;38.50;37.80;;;;;;5033774;28;20288;-74
2023/06/25 08:55:35;;;;;;;5.97;4.60;;;38.00;38.80;;;;;;5041292;28;20048;-72
2023/06/25 08:58:01;;;;;;;6.03;4.60;;;37.80;39.10;;;;;;5033436;28;20400;-74
2023/06/25 09:00:26;;;;;;;6.32;4.95;;;37.30;39.10;;;;;;5033423;28;20033;-74
2023/06/25 09:02:54;;;;;;;7.57;5.05;;;36.60;39.00;;;;;;5032406;28;20430;-76
2023/06/25 09:05:25;;;;;;;7.13;5.05;;;36.10;39.50;;;;;;5033577;28;20049;-72
2023/06/25 09:07:51;;;;;;;7.05;4.88;;;35.60;39.10;;;;;;5033925;28;20107;-75
2023/06/25 09:10:19;;;;;;;5.22;4.47;;;35.10;39.60;;;;;;5016655;28;20052;-75
2023/06/25 09:12:47;;;;;;;6.82;5.13;;;34.30;40.70;;;;;;5049585;28;20085;-74
2023/06/25 09:15:19;;;;;;;6.18;4.65;;;34.00;41.00;;;;;;5034203;28;20050;-76
2023/06/25 09:17:45;;;;;;;5.38;4.18;;;33.80;42.00;;;;;;5033958;28;20044;-76
2023/06/25 09:20:11;;;;;;;6.05;4.07;;;33.70;41.30;;;;;;5032576;28;20041;-75
2023/06/25 09:22:54;;;;;;;5.40;4.70;;;33.40;41.30;;;;;;5033780;28;20049;-72
2023/06/25 09:25:30;;;;;;;6.57;4.75;;;33.30;42.30;;;;;;5033570;28;20057;-75
2023/06/25 09:27:59;;;;;;;5.75;4.30;;;33.10;41.80;;;;;;5032360;28;20053;-75
2023/06/25 09:30:25;;;;;;;6.20;4.07;;;33.00;41.90;;;;;;5032477;28;20138;-74
2023/06/25 09:32:52;;;;;;;5.78;4.22;;;32.70;42.00;;;;;;5032365;28;20045;-81
2023/06/25 09:35:23;;;;;;;5.65;4.47;;;32.50;42.30;;;;;;5048791;28;20045;-81
2023/06/25 09:37:52;;;;;;;5.68;4.53;;;32.50;42.30;;;;;;5032284;28;20111;-75
2023/06/25 09:40:19;;;;;;;6.10;4.88;;;32.70;42.30;;;;;;5033480;28;20164;-75
2023/06/25 09:42:47;;;;;;;7.05;4.97;;;32.70;42.50;;;;;;5033489;28;20057;-75
2023/06/25 09:45:16;;;;;;;5.90;4.38;;;32.70;42.50;;;;;;5048300;28;20053;-75
2023/06/25 09:47:45;;;;;;;7.55;4.82;;;32.60;42.60;;;;;;5032057;28;20037;-76
2023/06/25 09:50:14;;;;;;;5.88;4.32;;;32.30;42.90;;;;;;5031580;28;20487;-73
2023/06/25 09:52:43;;;;;;;6.38;4.15;;;32.10;43.30;;;;;;5048910;28;20401;-73
2023/06/25 09:55:10;;;;;;;6.03;4.90;;;31.90;43.40;;;;;;5031877;28;20050;-76
2023/06/25 09:57:36;;;;;;;5.78;4.30;;;31.70;43.40;;;;;;5032313;28;20098;-79
2023/06/25 10:00:03;;;;;;;6.85;4.63;;;31.70;43.70;;;;;;5048340;28;20388;-81
2023/06/25 10:02:30;;;;;;;8.35;4.95;;;31.70;43.90;;;;;;5032045;28;20053;-81
2023/06/25 10:04:56;;;;;;;6.90;4.80;;;31.70;44.10;;;;;;5031584;28;20127;-81
2023/06/25 10:07:24;;;;;;;5.55;4.22;;;31.60;44.10;;;;;;5015179;28;20054;-82
2023/06/25 10:09:56;;;;;;;5.97;4.25;;;31.60;44.50;;;;;;4999709;28;20038;-74
2023/06/25 10:12:22;;;;;;;5.30;3.78;;;31.50;44.20;;;;;;5033151;28;20095;-74
2023/06/25 10:14:49;;;;;;;7.78;4.07;;;31.40;44.20;;;;;;4999030;28;20050;-74
2023/06/25 10:17:15;;;;;;;7.00;4.20;;;31.40;44.50;;;;;;5031354;28;20080;-75
2023/06/25 10:19:56;;;;;;;5.82;4.15;;;31.40;45.20;;;;;;5031926;28;20076;-74
2023/06/25 10:22:23;;;;;;;6.75;4.05;;;31.40;44.50;;;;;;5015513;28;20046;-74
2023/06/25 10:24:51;;;;;;;6.68;3.95;;;31.40;44.60;;;;;;5032781;28;20107;-78
2023/06/25 10:27:28;;;;;;;5.57;4.28;;;31.40;44.80;;;;;;5031157;28;20045;-76
2023/06/25 10:29:55;;;;;;;6.43;4.50;;;31.40;45.20;;;;;;5031761;28;20046;-74
2023/06/25 10:32:21;;;;;;;6.25;4.03;;;31.30;44.40;;;;;;5031523;28;20056;-80
2023/06/25 10:35:02;;;;;;;6.80;3.45;;;31.30;44.60;;;;;;5031444;28;20120;-78
2023/06/25 10:37:32;;;;;;;5.80;3.83;;;31.20;44.80;;;;;;5032239;28;20056;-80
2023/06/25 10:40:06;;;;;;;6.75;3.63;;;31.30;44.50;;;;;;5030657;28;20048;-80
2023/06/25 10:42:32;;;;;;;5.38;3.55;;;31.20;44.50;;;;;;5012904;28;20057;-80
2023/06/25 10:44:59;;;;;;;4.85;3.50;;;31.20;44.30;;;;;;5011821;28;20057;-81
2023/06/25 10:47:25;;;;;;;6.25;3.55;;;31.00;44.10;;;;;;4995845;28;20046;-80
2023/06/25 10:49:51;;;;;;;6.35;4.22;;;30.90;44.40;;;;;;5011612;28;20108;-80
2023/06/25 10:52:17;;;;;;;5.72;3.85;;;31.00;44.80;;;;;;5011514;28;20085;-78
2023/06/25 10:54:43;;;;;;;5.05;3.70;;;30.90;44.70;;;;;;5011540;28;20103;-79
2023/06/25 10:57:11;;;;;;;5.88;4.13;;;30.90;44.90;;;;;;5011272;28;20045;-80
2023/06/25 10:59:38;;;;;;;5.70;4.03;;;30.90;45.00;;;;;;5012937;28;20128;-79
2023/06/25 11:02:17;;;;;;;5.28;3.70;;;30.90;45.00;;;;;;5027652;28;20038;-71
2023/06/25 11:04:53;;;;;;;5.70;3.65;;;30.90;44.70;;;;;;5025368;28;20053;-81
2023/06/25 11:07:20;;;;;;;5.25;3.70;;;30.90;44.40;;;;;;5029411;28;20049;-83
2023/06/25 11:09:59;;;;;;;5.45;3.60;;;30.80;44.00;;;;;;5036124;28;20058;-82
2023/06/25 11:12:26;;;;;;;5.07;3.17;;;30.80;44.00;;;;;;4997023;28;20473;-82
2023/06/25 11:14:52;;;;;;;6.50;3.50;;;30.80;43.70;;;;;;5034779;28;20091;-82
2023/06/25 11:17:17;;;;;;;5.22;3.85;;;30.80;43.60;;;;;;5013333;28;20046;-82
2023/06/25 11:19:50;;;;;;;5.60;3.95;;;30.90;43.40;;;;;;5037453;28;20043;-82
2023/06/25 11:22:15;;;;;;;5.28;3.25;;;30.90;43.60;;;;;;5030314;28;20245;-82
2023/06/25 11:24:41;;;;;;;5.18;3.40;;;30.80;43.00;;;;;;5028239;28;20048;-82
2023/06/25 11:27:07;;;;;;;5.22;3.80;;;30.80;43.10;;;;;;5030067;28;20046;-83
2023/06/25 11:29:40;;;;;;;6.95;4.13;;;30.70;42.70;;;;;;5013657;28;20704;-82
2023/06/25 11:32:09;;;;;;;4.95;3.53;;;30.70;42.40;;;;;;5029882;28;20054;-82
2023/06/25 11:34:47;;;;;;;5.47;3.58;;;30.60;42.90;;;;;;5011516;28;20053;-82
2023/06/25 11:37:15;;;;;;;6.45;3.70;;;30.60;43.10;;;;;;5030992;28;20080;-82
2023/06/25 11:39:48;;;;;;;5.72;4.15;;;30.50;42.70;;;;;;5030683;28;20117;-82
2023/06/25 11:42:18;;;;;;;5.80;4.17;;;30.50;42.70;;;;;;5016709;28;20051;-82
2023/06/25 11:44:45;;;;;;;5.75;3.50;;;30.50;43.20;;;;;;5033144;28;20492;-82
2023/06/25 11:47:14;;;;;;;6.05;3.55;;;30.60;43.50;;;;;;5032381;28;20056;-82
2023/06/25 11:49:40;;;;;;;6.95;4.28;;;30.50;43.00;;;;;;5034629;28;20053;-82
2023/06/25 11:52:06;;;;;;;6.30;3.85;;;30.60;42.60;;;;;;5016681;28;20068;-81
2023/06/25 11:54:31;;;;;;;6.45;4.20;;;30.50;42.40;;;;;;5014716;28;20382;-81
2023/06/25 11:56:57;;;;;;;7.22;4.10;;;30.50;42.60;;;;;;5033332;28;20456;-81
2023/06/25 11:59:23;;;;;;;6.75;4.20;;;30.50;42.80;;;;;;5032701;28;20568;-81
2023/06/25 12:01:49;;;;;;;5.68;3.83;;;30.50;42.70;;;;;;5032404;28;20635;-82
2023/06/25 12:04:15;;;;;;;7.07;4.55;;;30.40;42.70;;;;;;5032310;28;20064;-82
2023/06/25 12:06:40;;;;;;;5.88;4.35;;;30.30;42.20;;;;;;5032844;28;20057;-81
2023/06/25 12:09:06;;;;;;;6.03;4.05;;;30.30;42.50;;;;;;5033802;28;20466;-80
2023/06/25 12:11:33;;;;;;;6.65;4.35;;;30.30;42.80;;;;;;5003993;28;20497;-82
2023/06/25 12:13:58;;;;;;;5.28;3.85;;;30.30;42.90;;;;;;5034803;28;20159;-81
2023/06/25 12:16:24;;;;;;;6.30;4.35;;;30.20;43.00;;;;;;5033350;28;20140;-81
2023/06/25 12:18:50;;;;;;;7.43;4.28;;;30.30;43.40;;;;;;5034971;28;20053;-81
2023/06/25 12:21:16;;;;;;;6.80;4.75;;;30.20;43.40;;;;;;5013536;28;20473;-80
2023/06/25 12:23:41;;;;;;;5.85;4.18;;;30.20;43.40;;;;;;5033553;28;20054;-79
2023/06/25 12:26:07;;;;;;;6.05;4.20;;;30.20;43.30;;;;;;5032998;28;20041;-82
2023/06/25 12:28:33;;;;;;;6.05;3.72;;;30.20;43.30;;;;;;5017153;28;20474;-83
2023/06/25 12:30:59;;;;;;;5.88;4.38;;;30.20;43.50;;;;;;5031398;28;20077;-80
2023/06/25 12:33:24;;;;;;;6.20;4.30;;;30.30;43.30;;;;;;5000353;28;20052;-81
2023/06/25 12:35:50;;;;;;;8.30;4.43;;;30.20;42.80;;;;;;5033515;28;20108;-82